createdAt,value
2023-06-28T00:01:38.485Z,15.59
2023-06-28T00:06:41.769Z,15.58
2023-06-28T00:11:45.102Z,15.60
2023-06-28T00:16:46.821Z,15.61
2023-06-28T00:21:50.416Z,15.57
2023-06-28T00:26:52.241Z,15.56
2023-06-28T00:31:54.033Z,15.48
2023-06-28T00:36:57.148Z,15.42
2023-06-28T00:41:58.865Z,15.39
2023-06-28T00:47:00.679Z,15.34
2023-06-28T00:52:04.338Z,15.35
2023-06-28T00:57:07.150Z,15.31
2023-06-28T01:02:08.925Z,15.30
2023-06-28T01:07:12.586Z,15.25
2023-06-28T01:12:14.349Z,15.21
2023-06-28T01:17:16.095Z,15.21
2023-06-28T01:22:19.247Z,15.14
2023-06-28T01:27:22.337Z,15.07
2023-06-28T01:32:25.058Z,14.98
2023-06-28T01:37:26.965Z,14.94
2023-06-28T01:42:30.032Z,14.89
2023-06-28T01:47:31.957Z,14.83
2023-06-28T01:52:34.236Z,14.81
2023-06-28T01:57:37.395Z,14.73
2023-06-28T02:02:39.195Z,14.68
2023-06-28T02:07:41.028Z,14.64
2023-06-28T02:12:45.928Z,14.65
2023-06-28T02:17:49.053Z,14.58
2023-06-28T02:22:50.873Z,14.55
2023-06-28T02:27:54.613Z,14.51
2023-06-28T02:32:56.406Z,14.45
2023-06-28T02:37:58.204Z,14.46
2023-06-28T02:43:01.374Z,14.43
2023-06-28T02:48:03.998Z,14.47
2023-06-28T02:53:05.883Z,14.49
2023-06-28T02:58:09.141Z,14.47
2023-06-28T03:03:11.442Z,14.47
2023-06-28T03:08:16.787Z,14.45
2023-06-28T03:13:20.028Z,14.46
2023-06-28T03:18:21.889Z,14.43
2023-06-28T03:23:23.689Z,14.45
2023-06-28T03:28:26.993Z,14.33
2023-06-28T03:33:28.791Z,14.36
2023-06-28T03:38:30.569Z,14.38
2023-06-28T03:43:33.736Z,14.34
2023-06-28T03:48:35.880Z,14.24
2023-06-28T03:53:38.917Z,14.26
2023-06-28T03:58:42.069Z,14.37
2023-06-28T04:03:44.357Z,14.49
2023-06-28T04:08:47.544Z,14.55
2023-06-28T04:13:50.650Z,14.62
2023-06-28T04:18:53.861Z,14.74
2023-06-28T04:23:55.605Z,14.74
2023-06-28T04:28:58.731Z,14.74
2023-06-28T04:34:00.820Z,14.81
2023-06-28T04:39:04.675Z,14.92
2023-06-28T04:44:10.747Z,15.02
2023-06-28T04:49:12.471Z,15.13
2023-06-28T04:54:14.478Z,15.23
2023-06-28T04:59:17.603Z,15.29
2023-06-28T05:04:19.445Z,15.52
2023-06-28T05:09:21.155Z,15.59
2023-06-28T05:14:24.290Z,15.68
2023-06-28T05:19:26.240Z,15.73
2023-06-28T05:24:27.958Z,15.79
2023-06-28T05:29:32.356Z,15.89
2023-06-28T05:34:34.762Z,16.05
2023-06-28T05:39:36.506Z,16.16
2023-06-28T05:44:39.550Z,16.31
2023-06-28T05:49:43.192Z,16.47
2023-06-28T05:54:44.938Z,16.55
2023-06-28T05:59:48.041Z,16.71
2023-06-28T06:04:49.803Z,16.83
2023-06-28T06:09:51.535Z,16.98
2023-06-28T06:14:57.843Z,17.09
2023-06-28T06:19:59.631Z,17.15
2023-06-28T06:25:01.693Z,17.20
2023-06-28T06:30:06.517Z,17.22
2023-06-28T06:35:09.066Z,17.34
2023-06-28T06:40:10.858Z,17.53
2023-06-28T06:45:18.263Z,17.64
2023-06-28T06:50:20.057Z,17.71
2023-06-28T06:55:21.771Z,17.77
2023-06-28T07:00:24.954Z,17.83
2023-06-28T07:05:26.722Z,17.94
2023-06-28T07:10:28.550Z,18.14
2023-06-28T07:15:31.618Z,18.30
2023-06-28T07:20:33.452Z,18.50
2023-06-28T07:25:35.577Z,18.52
2023-06-28T07:30:54.531Z,18.60
2023-06-28T07:35:56.298Z,18.62
2023-06-28T07:40:58.042Z,18.60
2023-06-28T07:46:02.094Z,18.62
2023-06-28T07:51:06.680Z,18.92
2023-06-28T07:56:08.467Z,19.24
2023-06-28T08:01:11.685Z,19.50
2023-06-28T08:06:13.507Z,19.83
2023-06-28T08:11:15.226Z,20.16
2023-06-28T08:16:18.669Z,20.60
2023-06-28T08:21:20.444Z,20.95
2023-06-28T08:26:22.230Z,21.27
2023-06-28T08:31:25.366Z,21.44
2023-06-28T08:36:28.865Z,21.88
2023-06-28T08:41:31.747Z,22.23
2023-06-28T08:46:34.867Z,22.66
2023-06-28T08:51:37.728Z,22.72
2023-06-28T08:56:48.253Z,22.73
2023-06-28T09:01:57.351Z,22.92
2023-06-28T09:06:59.260Z,22.96
2023-06-28T09:12:01.093Z,23.13
2023-06-28T09:17:04.482Z,22.95
2023-06-28T09:22:06.361Z,23.40
2023-06-28T09:27:08.547Z,23.64
2023-06-28T09:32:11.897Z,23.81
2023-06-28T09:37:13.673Z,23.23
2023-06-28T09:42:15.418Z,23.51
2023-06-28T09:47:18.490Z,23.36
2023-06-28T09:52:20.221Z,23.73
2023-06-28T09:57:21.955Z,23.77
2023-06-28T10:02:25.129Z,24.17
2023-06-28T10:07:26.928Z,24.72
2023-06-28T10:12:28.703Z,24.65
2023-06-28T10:17:35.222Z,24.61
2023-06-28T10:22:36.964Z,24.34
2023-06-28T10:27:39.101Z,24.48
2023-06-28T10:32:42.942Z,24.75
2023-06-28T10:37:44.722Z,24.84
2023-06-28T10:42:46.615Z,25.35
2023-06-28T10:47:55.295Z,24.39
2023-06-28T10:52:57.709Z,24.60
2023-06-28T10:58:06.506Z,24.24
2023-06-28T11:03:09.708Z,23.92
2023-06-28T11:08:12.094Z,24.66
2023-06-28T11:13:14.559Z,25.10
2023-06-28T11:18:19.929Z,25.26
2023-06-28T11:23:25.760Z,25.50
2023-06-28T11:28:29.550Z,25.65
2023-06-28T11:33:33.032Z,25.87
2023-06-28T11:38:34.939Z,25.91
2023-06-28T11:43:36.652Z,25.57
2023-06-28T11:48:39.745Z,25.02
2023-06-28T11:53:41.487Z,25.15
2023-06-28T11:58:43.239Z,25.43
2023-06-28T12:03:46.359Z,25.59
2023-06-28T12:08:48.170Z,25.42
2023-06-28T12:13:49.908Z,25.51
2023-06-28T12:19:00.063Z,25.27
2023-06-28T12:24:14.937Z,25.06
2023-06-28T12:29:18.287Z,24.85
2023-06-28T12:34:24.930Z,24.91
2023-06-28T12:39:27.808Z,24.84
2023-06-28T12:44:29.723Z,24.97
2023-06-28T12:49:38.948Z,24.95
2023-06-28T12:54:40.672Z,25.07
2023-06-28T12:59:42.544Z,25.41
2023-06-28T13:04:45.676Z,25.52
2023-06-28T13:09:47.461Z,25.24
2023-06-28T13:14:49.169Z,24.75
2023-06-28T13:19:52.817Z,24.92
2023-06-28T13:24:54.736Z,24.84
2023-06-28T13:29:56.506Z,24.70
2023-06-28T13:34:59.647Z,24.88
2023-06-28T13:40:03.527Z,25.14
2023-06-28T13:45:06.936Z,25.23
2023-06-28T13:50:10.680Z,25.37
2023-06-28T13:55:12.466Z,25.59
2023-06-28T14:00:14.877Z,25.58
2023-06-28T14:05:19.303Z,25.54
2023-06-28T14:10:22.734Z,25.53
2023-06-28T14:15:24.526Z,25.26
2023-06-28T14:20:27.722Z,25.33
2023-06-28T14:25:29.464Z,24.95
2023-06-28T14:30:31.293Z,24.87
2023-06-28T14:35:34.398Z,25.08
2023-06-28T14:40:36.120Z,24.99
2023-06-28T14:45:37.942Z,24.69
2023-06-28T14:50:41.065Z,24.47
2023-06-28T14:55:43.156Z,24.46
2023-06-28T15:00:45.666Z,24.54
2023-06-28T15:05:49.361Z,24.69
2023-06-28T15:10:51.079Z,24.66
2023-06-28T15:15:52.935Z,24.71
2023-06-28T15:20:56.137Z,24.59
2023-06-28T15:25:58.202Z,24.55
2023-06-28T15:30:59.993Z,24.55
2023-06-28T15:36:03.134Z,24.42
2023-06-28T15:41:04.830Z,24.26
2023-06-28T15:46:06.615Z,24.21
2023-06-28T15:51:09.681Z,24.08
2023-06-28T15:56:11.392Z,23.88
2023-06-28T16:01:14.509Z,23.75
2023-06-28T16:06:17.639Z,23.54
2023-06-28T16:11:19.420Z,23.56
2023-06-28T16:16:21.188Z,23.46
2023-06-28T16:21:24.307Z,23.46
2023-06-28T16:26:26.021Z,23.36
2023-06-28T16:31:29.892Z,23.22
2023-06-28T16:36:33.162Z,23.19
2023-06-28T16:41:34.967Z,23.15
2023-06-28T16:46:36.865Z,23.17
2023-06-28T16:51:39.933Z,23.11
2023-06-28T16:56:41.683Z,23.04
2023-06-28T17:01:43.411Z,22.97
2023-06-28T17:06:46.479Z,22.88
2023-06-28T17:11:48.369Z,22.90
2023-06-28T17:16:50.075Z,22.92
2023-06-28T17:21:53.178Z,22.71
2023-06-28T17:26:58.474Z,22.68
2023-06-28T17:32:00.522Z,22.71
2023-06-28T17:37:04.094Z,22.67
2023-06-28T17:42:06.392Z,22.66
2023-06-28T17:47:08.601Z,22.67
2023-06-28T17:52:11.864Z,22.62
2023-06-28T17:57:13.624Z,22.62
2023-06-28T18:02:17.601Z,22.62
2023-06-28T18:07:21.528Z,22.65
2023-06-28T18:12:24.014Z,22.67
2023-06-28T18:17:25.833Z,22.57
2023-06-28T18:22:28.976Z,22.55
2023-06-28T18:27:30.784Z,22.55
2023-06-28T18:32:32.571Z,22.45
2023-06-28T18:37:35.771Z,22.44
2023-06-28T18:42:37.524Z,22.39
2023-06-28T18:47:39.393Z,22.39
2023-06-28T18:52:42.533Z,22.34
2023-06-28T18:57:44.247Z,22.30
2023-06-28T19:02:46.020Z,22.20
2023-06-28T19:07:49.121Z,22.10
2023-06-28T19:12:50.922Z,22.05
2023-06-28T19:17:54.042Z,21.98
2023-06-28T19:22:57.173Z,21.87
2023-06-28T19:27:59.048Z,21.75
2023-06-28T19:33:00.825Z,21.52
2023-06-28T19:38:04.330Z,21.27
2023-06-28T19:43:06.104Z,21.16
2023-06-28T19:48:07.892Z,21.13
2023-06-28T19:53:11.804Z,21.04
2023-06-28T19:58:13.778Z,20.97
2023-06-28T20:03:15.620Z,20.92
2023-06-28T20:08:18.804Z,20.77
2023-06-28T20:13:20.904Z,20.52
2023-06-28T20:18:22.741Z,20.48
2023-06-28T20:23:25.949Z,20.32
2023-06-28T20:28:27.720Z,20.12
2023-06-28T20:33:29.484Z,20.00
2023-06-28T20:38:33.142Z,19.99
2023-06-28T20:43:38.375Z,20.00
2023-06-28T20:48:42.212Z,20.06
2023-06-28T20:53:47.695Z,20.05
2023-06-28T20:58:51.488Z,19.97
2023-06-28T21:03:55.123Z,19.77
2023-06-28T21:09:00.135Z,19.77
2023-06-28T21:14:03.116Z,19.64
2023-06-28T21:19:04.906Z,19.56
2023-06-28T21:24:08.390Z,19.48
2023-06-28T21:29:10.212Z,19.44
2023-06-28T21:34:11.967Z,19.45
2023-06-28T21:39:15.080Z,19.41
2023-06-28T21:44:16.899Z,19.33
2023-06-28T21:49:18.651Z,19.27
2023-06-28T21:54:21.829Z,19.35
2023-06-28T21:59:26.639Z,19.33
2023-06-28T22:04:28.468Z,19.31
2023-06-28T22:09:31.717Z,19.24
2023-06-28T22:14:33.631Z,19.11
2023-06-28T22:19:36.303Z,19.09
2023-06-28T22:24:39.489Z,19.01
2023-06-28T22:29:41.254Z,18.98
2023-06-28T22:34:43.051Z,19.02
2023-06-28T22:39:46.363Z,19.03
2023-06-28T22:44:48.285Z,19.06
2023-06-28T22:49:50.047Z,19.07
2023-06-28T22:54:54.065Z,19.14
2023-06-28T22:59:55.809Z,19.18
2023-06-28T23:04:57.656Z,19.29
2023-06-28T23:10:00.959Z,19.36
2023-06-28T23:15:02.783Z,19.28
2023-06-28T23:20:06.664Z,19.16
2023-06-28T23:25:14.228Z,19.28
2023-06-28T23:30:17.361Z,19.28
2023-06-28T23:35:19.177Z,19.29
2023-06-28T23:40:22.429Z,19.27
2023-06-28T23:45:24.330Z,19.38
2023-06-28T23:50:27.233Z,19.45
2023-06-28T23:55:30.467Z,19.51
